Gooberville, Louisiana
Current Conditions -  °F | °C
As of 3:53 AM on Sunday 23 Nov 2014 (Local Time) from KAEX Reporting Station
Moderate Rain Moderate Rain  
Wind Chill: 64°   Ceiling: 700
Heat Index: 64°   Visibility: 5mi
Dew Point: 62°   Wind: 10mph
Humidity: 93%   Direction: 130°SE
Pressure: 29.69"   Gusts: NA
Location:  31.4254°N, 92.7765°W
Report Text: KAEX 230953Z 13009KT 5SM RA BR OVC007 18/17 A2969 RMK AO2 CIG 005V010 SLP057 P0009 T01780167
Loading
Personal Weather Stations






























Interactive Weather Map New forecast layout! Learn more

10-Day Weather Forecast

Advertisements
Track Severe Weather on mobile